createdAt,value
2018-11-29T09:18:06.176Z,820
2018-11-29T09:18:38.127Z,840
2018-11-29T09:19:10.095Z,864
2018-11-29T09:19:42.125Z,880
2018-11-29T09:20:14.098Z,900
2018-11-29T09:20:46.092Z,920
2018-11-29T09:21:18.082Z,928
2018-11-29T09:21:50.069Z,940
2018-11-29T09:22:22.038Z,940
2018-11-29T09:22:54.005Z,944
2018-11-29T09:23:25.987Z,940
2018-11-29T09:23:57.975Z,936
2018-11-29T09:24:29.964Z,932
2018-11-29T09:25:01.987Z,920
2018-11-29T09:25:33.972Z,912
2018-11-29T09:26:05.948Z,904
2018-11-29T09:26:37.904Z,896
2018-11-29T09:27:09.894Z,892
2018-11-29T09:27:41.871Z,888
2018-11-29T09:28:13.855Z,884
2018-11-29T09:28:45.825Z,880
2018-11-29T09:29:17.806Z,888
2018-11-29T09:29:49.791Z,900
2018-11-29T09:30:21.772Z,912
2018-11-29T09:30:53.774Z,920
2018-11-29T09:31:25.757Z,928
2018-11-29T09:31:57.753Z,932
2018-11-29T09:32:29.723Z,940
2018-11-29T09:33:01.736Z,948
2018-11-29T09:33:33.704Z,956
2018-11-29T09:34:05.693Z,956
2018-11-29T09:34:37.765Z,952
2018-11-29T09:35:09.752Z,952
2018-11-29T09:35:41.723Z,940
2018-11-29T09:36:13.715Z,928
2018-11-29T09:36:45.676Z,916
2018-11-29T09:37:17.683Z,904
2018-11-29T09:37:49.681Z,884
2018-11-29T09:38:21.666Z,868
2018-11-29T09:38:53.631Z,856
2018-11-29T09:39:25.609Z,848
2018-11-29T09:39:57.705Z,844
2018-11-29T09:40:29.689Z,856
2018-11-29T09:41:01.646Z,864
2018-11-29T09:41:33.653Z,872
2018-11-29T09:42:05.647Z,876
2018-11-29T09:42:37.611Z,872
2018-11-29T09:43:09.608Z,864
2018-11-29T09:43:41.585Z,860
2018-11-29T09:44:13.622Z,856
2018-11-29T09:44:45.617Z,860
2018-11-29T09:45:17.586Z,876
2018-11-29T09:45:49.568Z,876
2018-11-29T09:46:21.552Z,872
2018-11-29T09:46:53.521Z,856
2018-11-29T09:47:25.641Z,832
2018-11-29T09:47:57.602Z,820
2018-11-29T09:48:29.704Z,812
2018-11-29T09:49:01.691Z,816
2018-11-29T09:49:33.662Z,812
2018-11-29T09:50:05.906Z,800
2018-11-29T09:50:38.673Z,792
2018-11-29T09:51:10.787Z,788
2018-11-29T09:51:43.053Z,788
2018-11-29T09:52:15.072Z,776
2018-11-29T09:52:47.128Z,760
2018-11-29T09:53:19.110Z,748
2018-11-29T09:53:51.103Z,748
2018-11-29T09:54:23.114Z,740
2018-11-29T09:54:55.108Z,728
2018-11-29T09:55:27.111Z,732
2018-11-29T09:55:59.092Z,728
2018-11-29T09:56:31.072Z,728
2018-11-29T09:57:03.062Z,736
2018-11-29T09:57:35.059Z,748
2018-11-29T09:58:07.050Z,760
2018-11-29T09:58:39.032Z,776
2018-11-29T09:59:11.032Z,780
2018-11-29T09:59:43.032Z,780
2018-11-29T10:00:15.005Z,776
2018-11-29T10:00:47.101Z,756
2018-11-29T10:01:19.080Z,748
2018-11-29T10:01:51.056Z,740
2018-11-29T10:02:23.074Z,736
2018-11-29T10:02:55.138Z,736
2018-11-29T10:03:27.134Z,740
2018-11-29T10:04:06.061Z,752
2018-11-29T10:04:38.085Z,792
2018-11-29T10:05:10.074Z,852
2018-11-29T10:05:42.106Z,948
2018-11-29T10:06:14.156Z,1048
2018-11-29T10:06:46.137Z,1136
2018-11-29T10:07:18.145Z,1200
2018-11-29T10:07:50.205Z,1248
2018-11-29T10:08:27.426Z,1288
2018-11-29T10:08:59.464Z,1312
2018-11-29T10:09:31.534Z,1324
2018-11-29T10:10:03.626Z,1320
2018-11-29T10:10:35.664Z,1312
2018-11-29T10:11:07.711Z,1292
2018-11-29T10:11:39.706Z,1268
2018-11-29T10:12:11.785Z,1248
2018-11-29T10:12:43.774Z,1220
2018-11-29T10:13:15.768Z,1200
2018-11-29T10:13:47.883Z,1172
2018-11-29T10:14:19.875Z,1156
2018-11-29T10:14:51.877Z,1136
2018-11-29T10:15:23.914Z,1132
2018-11-29T10:15:55.901Z,1148
2018-11-29T10:16:27.857Z,1160
2018-11-29T10:16:59.870Z,1180
2018-11-29T10:17:31.874Z,1204
2018-11-29T10:18:03.923Z,1220
2018-11-29T10:18:35.928Z,1240
2018-11-29T10:19:07.924Z,1252
2018-11-29T10:19:39.928Z,1260
2018-11-29T10:20:11.935Z,1268
2018-11-29T10:20:43.942Z,1268
2018-11-29T10:21:15.915Z,1264
2018-11-29T10:21:47.950Z,1268
2018-11-29T10:22:19.945Z,1268
2018-11-29T10:22:51.949Z,1264
2018-11-29T10:23:23.947Z,1260
2018-11-29T10:23:56.010Z,1260
2018-11-29T10:24:27.998Z,1264
2018-11-29T10:24:59.983Z,1272
2018-11-29T10:25:31.979Z,1280
2018-11-29T10:26:03.968Z,1276
2018-11-29T10:26:35.956Z,1272
2018-11-29T10:27:07.934Z,1264
2018-11-29T10:27:39.912Z,1252
2018-11-29T10:28:11.893Z,1224
2018-11-29T10:28:43.859Z,1196
2018-11-29T10:29:16.172Z,1172
2018-11-29T10:29:48.183Z,1156
2018-11-29T10:30:20.172Z,1148
2018-11-29T10:30:52.126Z,1140
2018-11-29T10:31:24.552Z,1136
2018-11-29T10:31:56.584Z,1136
2018-11-29T10:32:28.568Z,1144
2018-11-29T10:33:00.554Z,1140
2018-11-29T10:33:32.520Z,1148
2018-11-29T10:34:04.491Z,1144
2018-11-29T10:34:36.480Z,1148
2018-11-29T10:35:08.461Z,1140
2018-11-29T10:35:40.463Z,1128
2018-11-29T10:36:12.447Z,1104
2018-11-29T10:36:44.432Z,1076
2018-11-29T10:37:16.425Z,1048
2018-11-29T10:37:48.408Z,1024
2018-11-29T10:38:20.372Z,1008
2018-11-29T10:38:52.344Z,992
2018-11-29T10:39:24.307Z,980
2018-11-29T10:39:56.285Z,968
2018-11-29T10:40:28.276Z,956
2018-11-29T10:41:00.225Z,940
2018-11-29T10:41:32.291Z,924
2018-11-29T10:42:04.265Z,908
2018-11-29T10:42:36.247Z,888
2018-11-29T10:43:08.456Z,868
2018-11-29T10:43:40.434Z,856
2018-11-29T10:44:12.434Z,844
2018-11-29T10:44:44.416Z,828
2018-11-29T10:45:16.528Z,812
2018-11-29T10:45:48.531Z,804
2018-11-29T10:46:20.572Z,796
2018-11-29T10:46:52.768Z,784
2018-11-29T10:47:24.762Z,776
2018-11-29T10:47:56.781Z,768
2018-11-29T10:48:28.788Z,764
2018-11-29T10:49:00.765Z,764
2018-11-29T10:49:32.757Z,768
2018-11-29T10:50:04.748Z,768
2018-11-29T10:50:36.752Z,776
2018-11-29T10:51:08.734Z,788
2018-11-29T10:51:40.721Z,796
2018-11-29T10:52:12.696Z,812
2018-11-29T10:52:44.708Z,836
2018-11-29T10:53:16.707Z,860
2018-11-29T10:53:48.710Z,892
2018-11-29T10:54:20.811Z,924
2018-11-29T10:54:52.962Z,968
2018-11-29T10:55:24.942Z,1020
2018-11-29T10:55:56.932Z,1072
2018-11-29T10:56:28.972Z,1116
2018-11-29T10:57:04.241Z,1148
2018-11-29T10:57:36.319Z,1164
2018-11-29T10:58:08.381Z,1168
2018-11-29T10:58:40.389Z,1176
2018-11-29T10:59:12.370Z,1168
2018-11-29T10:59:44.354Z,1164
2018-11-29T11:00:16.350Z,1156
2018-11-29T11:00:48.332Z,1144
2018-11-29T11:01:20.319Z,1124
2018-11-29T11:01:52.410Z,1100
2018-11-29T11:02:24.402Z,1072
2018-11-29T11:02:56.567Z,1052
2018-11-29T11:03:28.550Z,1040
2018-11-29T11:04:00.533Z,1028
2018-11-29T11:04:32.513Z,1036
2018-11-29T11:05:04.486Z,1048
2018-11-29T11:05:36.481Z,1060
2018-11-29T11:06:08.476Z,1076
2018-11-29T11:06:40.437Z,1084
2018-11-29T11:07:12.631Z,1088
2018-11-29T11:07:44.634Z,1084
2018-11-29T11:08:17.309Z,1080
2018-11-29T11:08:49.312Z,1068
2018-11-29T11:09:21.277Z,1056
2018-11-29T11:09:53.264Z,1048
2018-11-29T11:10:25.266Z,1036
2018-11-29T11:10:57.245Z,1028
2018-11-29T11:11:29.223Z,1016
2018-11-29T11:12:01.209Z,1008
2018-11-29T11:12:33.196Z,1000
2018-11-29T11:13:05.211Z,992
2018-11-29T11:13:37.203Z,984
2018-11-29T11:14:09.186Z,976
2018-11-29T11:14:41.170Z,972
2018-11-29T11:15:13.141Z,964
2018-11-29T11:15:45.136Z,956
2018-11-29T11:16:17.185Z,948
2018-11-29T11:16:49.220Z,944
2018-11-29T11:17:21.207Z,944
2018-11-29T11:17:53.214Z,940
2018-11-29T11:18:25.221Z,948
2018-11-29T11:18:57.207Z,956
2018-11-29T11:19:29.173Z,960
2018-11-29T11:20:01.171Z,960
2018-11-29T11:20:33.219Z,964
2018-11-29T11:21:05.242Z,964
2018-11-29T11:21:37.214Z,960
2018-11-29T11:22:09.246Z,952
2018-11-29T11:22:41.224Z,952
2018-11-29T11:23:13.219Z,956
2018-11-29T11:23:45.220Z,964
2018-11-29T11:24:17.209Z,976
2018-11-29T11:24:49.198Z,992
2018-11-29T11:25:21.185Z,1008
2018-11-29T11:25:53.157Z,1020
2018-11-29T11:26:25.140Z,1028
2018-11-29T11:26:57.145Z,1036
2018-11-29T11:27:29.326Z,1040
2018-11-29T11:28:01.562Z,1036
2018-11-29T11:28:33.548Z,1032
2018-11-29T11:29:05.538Z,1024
2018-11-29T11:29:37.525Z,1016
2018-11-29T11:30:09.505Z,1016
2018-11-29T11:30:41.571Z,1020
2018-11-29T11:31:13.585Z,1032
2018-11-29T11:31:45.715Z,1048
2018-11-29T11:32:18.901Z,1080
2018-11-29T11:32:50.954Z,1112
2018-11-29T11:33:22.985Z,1152
2018-11-29T11:33:54.989Z,1200
2018-11-29T11:34:27.001Z,1236
2018-11-29T11:34:59.036Z,1272
2018-11-29T11:35:31.023Z,1288
2018-11-29T11:36:03.034Z,1296
2018-11-29T11:36:35.026Z,1300
2018-11-29T11:37:07.022Z,1300
2018-11-29T11:37:39.123Z,1296
2018-11-29T11:38:11.112Z,1288
2018-11-29T11:38:43.102Z,1284
2018-11-29T11:39:15.125Z,1268
2018-11-29T11:39:47.108Z,1256
2018-11-29T11:40:19.135Z,1236
2018-11-29T11:40:51.168Z,1212
2018-11-29T11:41:23.297Z,1184
2018-11-29T11:41:55.798Z,1160
2018-11-29T11:42:28.043Z,1140
2018-11-29T11:43:05.026Z,1124
2018-11-29T11:43:37.526Z,1108
2018-11-29T11:44:09.583Z,1096
2018-11-29T11:44:41.596Z,1084
2018-11-29T11:45:13.595Z,1084
2018-11-29T11:45:45.933Z,1076
2018-11-29T11:46:18.068Z,1072
2018-11-29T11:46:50.102Z,1076
2018-11-29T11:47:22.197Z,1072
2018-11-29T11:47:54.196Z,1072
2018-11-29T11:48:26.205Z,1060
2018-11-29T11:48:58.194Z,1052
2018-11-29T11:49:30.171Z,1044
2018-11-29T11:50:02.163Z,1036
2018-11-29T11:50:34.178Z,1028
2018-11-29T11:51:06.175Z,1020
2018-11-29T11:51:38.172Z,1012
2018-11-29T11:52:11.106Z,1008
2018-11-29T11:52:43.262Z,1008
2018-11-29T11:53:15.242Z,1000
2018-11-29T11:53:47.252Z,996
2018-11-29T11:54:19.232Z,992
2018-11-29T11:54:51.234Z,984
2018-11-29T11:55:30.540Z,980
2018-11-29T11:56:02.531Z,980
2018-11-29T11:56:34.559Z,976
2018-11-29T11:57:08.767Z,976
2018-11-29T11:57:40.995Z,972
2018-11-29T11:58:13.034Z,968
2018-11-29T11:58:45.237Z,964
2018-11-29T11:59:17.226Z,956
2018-11-29T11:59:49.230Z,944
2018-11-29T12:00:21.315Z,932
2018-11-29T12:00:53.335Z,920
2018-11-29T12:01:25.323Z,912
2018-11-29T12:01:57.325Z,904
2018-11-29T12:02:29.556Z,904
2018-11-29T12:03:01.551Z,900
2018-11-29T12:03:33.536Z,896
2018-11-29T12:04:05.539Z,896
2018-11-29T12:04:37.559Z,900
2018-11-29T12:05:09.549Z,904
2018-11-29T12:05:41.537Z,908
2018-11-29T12:06:13.567Z,912
2018-11-29T12:06:45.575Z,908
2018-11-29T12:07:17.589Z,908
2018-11-29T12:07:49.880Z,908
2018-11-29T12:08:21.904Z,908
2018-11-29T12:08:53.897Z,912
2018-11-29T12:09:25.906Z,916
2018-11-29T12:10:00.069Z,920
2018-11-29T12:10:32.299Z,924
2018-11-29T12:11:04.301Z,932
2018-11-29T12:11:36.373Z,940
2018-11-29T12:12:08.373Z,948
2018-11-29T12:12:40.354Z,940
2018-11-29T12:13:12.329Z,952
2018-11-29T12:13:44.310Z,952
2018-11-29T12:14:16.321Z,964
2018-11-29T12:14:48.349Z,972
2018-11-29T12:15:20.330Z,976
2018-11-29T12:15:53.037Z,972
2018-11-29T12:16:25.028Z,972
2018-11-29T12:16:57.033Z,976
2018-11-29T12:17:29.017Z,988
2018-11-29T12:18:00.978Z,1004
2018-11-29T12:18:32.977Z,1020
2018-11-29T12:19:04.944Z,1036
2018-11-29T12:19:36.897Z,1052
2018-11-29T12:20:08.890Z,1076
2018-11-29T12:20:40.874Z,1096
2018-11-29T12:21:12.844Z,1120
2018-11-29T12:21:44.833Z,1140
2018-11-29T12:22:16.847Z,1160
2018-11-29T12:22:48.834Z,1176
2018-11-29T12:23:20.826Z,1196
2018-11-29T12:23:52.780Z,1220
2018-11-29T12:24:24.751Z,1240
2018-11-29T12:24:56.751Z,1256
2018-11-29T12:25:28.719Z,1272
2018-11-29T12:26:00.690Z,1280
2018-11-29T12:26:32.664Z,1280
2018-11-29T12:27:04.650Z,1276
2018-11-29T12:27:36.622Z,1268
2018-11-29T12:28:08.617Z,1252
2018-11-29T12:28:40.618Z,1236
2018-11-29T12:29:12.617Z,1220
2018-11-29T12:29:44.592Z,1200
2018-11-29T12:30:16.558Z,1180
2018-11-29T12:30:48.526Z,1160
2018-11-29T12:31:20.501Z,1144
2018-11-29T12:31:53.209Z,1132
2018-11-29T12:32:25.208Z,1120
2018-11-29T12:32:58.104Z,1108
2018-11-29T12:33:30.096Z,1100
2018-11-29T12:34:02.057Z,1096
2018-11-29T12:34:34.075Z,1092
2018-11-29T12:35:06.028Z,1088
2018-11-29T12:35:38.017Z,1080
2018-11-29T12:36:10.079Z,1072
2018-11-29T12:36:42.057Z,1064
2018-11-29T12:37:14.013Z,1052
2018-11-29T12:37:45.987Z,1040
2018-11-29T12:38:17.975Z,1024
2018-11-29T12:38:49.949Z,1008
2018-11-29T12:39:21.946Z,992
2018-11-29T12:39:53.925Z,972
2018-11-29T12:40:25.902Z,956
2018-11-29T12:40:57.935Z,940
2018-11-29T12:41:29.923Z,920
2018-11-29T12:42:01.941Z,904
2018-11-29T12:42:33.962Z,888
2018-11-29T12:43:05.977Z,872
2018-11-29T12:43:37.961Z,856
2018-11-29T12:44:09.978Z,836
2018-11-29T12:44:41.973Z,824
2018-11-29T12:45:13.927Z,804
2018-11-29T12:45:45.905Z,792
2018-11-29T12:46:17.895Z,776
2018-11-29T12:46:49.877Z,764
2018-11-29T12:47:21.833Z,752
2018-11-29T12:47:53.828Z,740
2018-11-29T12:48:25.827Z,724
2018-11-29T12:48:57.792Z,712
2018-11-29T12:49:29.749Z,704
2018-11-29T12:50:01.718Z,692
2018-11-29T12:50:33.748Z,684
2018-11-29T12:51:05.725Z,676
2018-11-29T12:51:37.716Z,672
2018-11-29T12:52:09.706Z,668
2018-11-29T12:52:41.698Z,664
2018-11-29T12:53:13.675Z,660
2018-11-29T12:53:45.641Z,660
2018-11-29T12:54:17.624Z,652
2018-11-29T12:54:49.586Z,652
2018-11-29T12:55:21.590Z,648
2018-11-29T12:55:53.596Z,648
2018-11-29T12:56:25.574Z,644
2018-11-29T12:56:57.562Z,640
2018-11-29T12:57:29.556Z,636
2018-11-29T12:58:08.691Z,636
2018-11-29T12:58:40.717Z,636
2018-11-29T12:59:12.715Z,628
2018-11-29T12:59:44.696Z,628
2018-11-29T13:00:16.672Z,620
2018-11-29T13:00:48.654Z,616
2018-11-29T13:01:20.645Z,608
2018-11-29T13:01:52.646Z,608
2018-11-29T13:02:24.629Z,612
2018-11-29T13:02:56.616Z,608
2018-11-29T13:03:28.617Z,596
2018-11-29T13:04:00.603Z,592
2018-11-29T13:04:33.498Z,592
2018-11-29T13:05:05.488Z,592
2018-11-29T13:05:37.451Z,576
2018-11-29T13:06:09.430Z,560
2018-11-29T13:06:41.391Z,540
2018-11-29T13:07:13.342Z,516
2018-11-29T13:07:45.310Z,492
2018-11-29T13:08:17.279Z,460
2018-11-29T13:08:49.261Z,420
2018-11-29T13:09:21.252Z,384
2018-11-29T13:09:53.232Z,356
2018-11-29T13:10:25.262Z,332
2018-11-29T13:10:57.253Z,320
2018-11-29T13:11:29.362Z,304
2018-11-29T13:12:01.425Z,288
2018-11-29T13:12:33.396Z,272
2018-11-29T13:13:05.378Z,260
2018-11-29T13:13:37.359Z,256
2018-11-29T13:14:09.794Z,260
2018-11-29T13:14:41.918Z,264
2018-11-29T13:15:14.383Z,280
2018-11-29T13:15:46.881Z,300
2018-11-29T13:16:18.863Z,328
2018-11-29T13:16:50.847Z,356
2018-11-29T13:17:22.823Z,376
2018-11-29T13:17:54.788Z,392
2018-11-29T13:18:26.819Z,404
2018-11-29T13:18:58.835Z,408
2018-11-29T13:19:30.814Z,412
2018-11-29T13:20:02.976Z,408
2018-11-29T13:20:34.960Z,400
2018-11-29T13:21:06.940Z,392
2018-11-29T13:21:38.917Z,388
2018-11-29T13:22:10.886Z,380
2018-11-29T13:22:42.900Z,376
2018-11-29T13:23:14.909Z,372
2018-11-29T13:23:46.887Z,364
2018-11-29T13:24:18.926Z,360
2018-11-29T13:24:50.935Z,352
2018-11-29T13:25:22.918Z,348
2018-11-29T13:25:54.910Z,344
2018-11-29T13:26:26.882Z,340
2018-11-29T13:26:58.874Z,336
2018-11-29T13:27:30.849Z,328
2018-11-29T13:28:02.898Z,324
2018-11-29T13:28:34.957Z,320
2018-11-29T13:29:06.924Z,316
2018-11-29T13:29:38.912Z,316
2018-11-29T13:30:10.905Z,320
2018-11-29T13:30:42.870Z,324
2018-11-29T13:31:14.907Z,332
2018-11-29T13:31:46.898Z,340
2018-11-29T13:32:18.885Z,352
2018-11-29T13:32:50.864Z,360
2018-11-29T13:33:22.865Z,368
2018-11-29T13:33:54.837Z,372
2018-11-29T13:34:26.833Z,376
2018-11-29T13:34:58.826Z,380
2018-11-29T13:35:30.823Z,380
2018-11-29T13:36:02.826Z,380
2018-11-29T13:36:34.817Z,376
2018-11-29T13:37:06.817Z,376
2018-11-29T13:37:38.820Z,376
2018-11-29T13:38:10.839Z,376
2018-11-29T13:38:42.812Z,376
2018-11-29T13:39:14.790Z,376
2018-11-29T13:39:46.931Z,372
2018-11-29T13:40:52.297Z,368
2018-11-29T13:41:24.392Z,364
2018-11-29T13:41:56.397Z,360
2018-11-29T13:42:28.386Z,360
2018-11-29T13:43:00.384Z,360
2018-11-29T13:43:32.363Z,360
2018-11-29T13:44:04.493Z,356
2018-11-29T13:44:36.504Z,356
2018-11-29T13:45:08.487Z,356
2018-11-29T13:45:40.477Z,352
2018-11-29T13:46:12.472Z,356
2018-11-29T13:46:44.477Z,356
2018-11-29T13:47:16.531Z,352
2018-11-29T13:47:48.538Z,356
2018-11-29T13:48:20.525Z,348
2018-11-29T13:48:52.534Z,352
2018-11-29T13:49:24.509Z,348
2018-11-29T13:49:56.581Z,344
2018-11-29T13:50:28.681Z,344
2018-11-29T13:51:00.646Z,340
2018-11-29T13:51:32.638Z,336
2018-11-29T13:52:04.966Z,336
2018-11-29T13:52:37.073Z,336
2018-11-29T13:53:09.087Z,328
2018-11-29T13:53:41.094Z,328
2018-11-29T13:54:13.074Z,324
2018-11-29T13:54:45.043Z,316
2018-11-29T13:55:17.245Z,308
2018-11-29T13:55:49.377Z,304
2018-11-29T13:56:21.393Z,296
2018-11-29T13:56:53.398Z,288
2018-11-29T13:57:25.402Z,280
2018-11-29T13:57:57.443Z,280
2018-11-29T13:58:29.450Z,272
2018-11-29T13:59:01.643Z,268
2018-11-29T13:59:33.944Z,264
2018-11-29T14:00:05.918Z,256
2018-11-29T14:00:37.895Z,252
2018-11-29T14:01:09.875Z,248
2018-11-29T14:01:41.875Z,244
2018-11-29T14:02:13.852Z,240
2018-11-29T14:02:48.416Z,236
2018-11-29T14:03:20.398Z,232
2018-11-29T14:03:52.361Z,224
2018-11-29T14:04:24.347Z,220
2018-11-29T14:04:56.347Z,220
2018-11-29T14:05:28.319Z,212
2018-11-29T14:06:00.295Z,208
2018-11-29T14:06:32.261Z,208
2018-11-29T14:07:04.249Z,200
2018-11-29T14:07:37.015Z,200
2018-11-29T14:08:09.094Z,196
2018-11-29T14:08:41.169Z,192
2018-11-29T14:09:13.321Z,192
2018-11-29T14:09:45.295Z,188
2018-11-29T14:10:17.356Z,184
2018-11-29T14:10:49.442Z,184
2018-11-29T14:11:21.438Z,180
2018-11-29T14:11:53.421Z,176
2018-11-29T14:12:25.386Z,172
2018-11-29T14:12:57.373Z,168
2018-11-29T14:13:29.371Z,164
2018-11-29T14:14:01.339Z,160
2018-11-29T14:14:33.428Z,160
2018-11-29T14:15:05.451Z,156
2018-11-29T14:15:37.458Z,156
2018-11-29T14:16:09.434Z,152
2018-11-29T14:16:41.507Z,148
2018-11-29T14:17:13.621Z,148
2018-11-29T14:17:45.604Z,144
2018-11-29T14:18:17.578Z,144
2018-11-29T14:18:49.564Z,144
2018-11-29T14:19:21.626Z,144
2018-11-29T14:19:53.677Z,140
2018-11-29T14:20:25.652Z,144
2018-11-29T14:20:57.621Z,140
2018-11-29T14:21:29.734Z,140
2018-11-29T14:22:01.714Z,140
2018-11-29T14:22:33.669Z,140
2018-11-29T14:23:05.644Z,140
2018-11-29T14:23:37.663Z,136
2018-11-29T14:24:09.618Z,136
2018-11-29T14:24:41.579Z,136
2018-11-29T14:25:13.769Z,140
2018-11-29T14:25:45.779Z,144
2018-11-29T14:26:17.758Z,140
2018-11-29T14:26:49.736Z,144
2018-11-29T14:27:21.701Z,144
2018-11-29T14:27:53.750Z,140
2018-11-29T14:28:25.827Z,140
2018-11-29T14:28:57.969Z,140
2018-11-29T14:29:29.981Z,140
2018-11-29T14:30:01.973Z,132
2018-11-29T14:30:33.954Z,132
2018-11-29T14:31:05.953Z,128
2018-11-29T14:31:37.919Z,124
2018-11-29T14:32:10.642Z,124
2018-11-29T14:32:42.948Z,116
2018-11-29T14:33:14.928Z,112
2018-11-29T14:33:47.031Z,108
2018-11-29T14:34:19.081Z,104
2018-11-29T14:34:53.209Z,100
2018-11-29T14:35:25.175Z,96
2018-11-29T14:35:57.166Z,92
2018-11-29T14:36:29.132Z,88
2018-11-29T14:37:01.131Z,84
2018-11-29T14:37:33.110Z,84
2018-11-29T14:38:05.073Z,80
2018-11-29T14:38:37.047Z,76
2018-11-29T14:39:09.061Z,76
2018-11-29T14:39:41.048Z,72
2018-11-29T14:40:13.030Z,72
2018-11-29T14:40:44.995Z,68
2018-11-29T14:41:16.974Z,68
2018-11-29T14:41:48.936Z,64
2018-11-29T14:42:20.903Z,60
2018-11-29T14:42:52.879Z,60
2018-11-29T14:43:24.861Z,56
2018-11-29T14:43:56.858Z,56
2018-11-29T14:44:28.892Z,56
2018-11-29T14:46:56.085Z,48
2018-11-29T14:47:28.062Z,44
2018-11-29T14:48:00.119Z,44
2018-11-29T14:48:32.092Z,44
2018-11-29T14:49:04.083Z,44
2018-11-29T14:49:36.066Z,40
2018-11-29T14:50:08.042Z,44
2018-11-29T14:50:40.047Z,44
2018-11-29T14:51:12.344Z,44
2018-11-29T14:51:49.289Z,40
2018-11-29T14:52:21.266Z,40
2018-11-29T14:52:53.272Z,44
2018-11-29T14:53:25.251Z,40
2018-11-29T14:53:57.241Z,40
2018-11-29T14:54:29.210Z,40
2018-11-29T14:55:01.174Z,40
2018-11-29T14:55:33.171Z,40
2018-11-29T14:56:05.219Z,36
2018-11-29T14:56:37.203Z,36
2018-11-29T14:57:09.166Z,32
2018-11-29T14:57:41.177Z,36
2018-11-29T14:58:13.150Z,32
2018-11-29T14:58:45.174Z,32
2018-11-29T14:59:17.182Z,32
2018-11-29T14:59:49.172Z,28
2018-11-29T15:00:21.135Z,28
2018-11-29T15:00:53.105Z,28
2018-11-29T15:01:25.101Z,28
2018-11-29T15:01:57.084Z,28
2018-11-29T15:02:29.070Z,24
2018-11-29T15:03:01.095Z,28
2018-11-29T15:03:33.973Z,24
2018-11-29T15:04:06.859Z,24
2018-11-29T15:04:38.846Z,20
2018-11-29T15:05:10.829Z,24
2018-11-29T15:05:42.829Z,24
2018-11-29T15:06:14.810Z,20
2018-11-29T15:06:46.786Z,20
2018-11-29T15:07:18.776Z,24
2018-11-29T15:07:50.759Z,24
2018-11-29T15:08:22.731Z,20
2018-11-29T15:08:54.698Z,20
2018-11-29T15:09:26.656Z,20
2018-11-29T15:09:58.640Z,20
2018-11-29T15:10:30.626Z,20
2018-11-29T15:11:02.598Z,20
2018-11-29T15:11:34.571Z,16
2018-11-29T15:12:06.542Z,16
2018-11-29T15:12:38.513Z,20
2018-11-29T15:13:10.486Z,20
2018-11-29T15:13:42.456Z,16
2018-11-29T15:14:19.227Z,16
2018-11-29T15:14:51.282Z,16
2018-11-29T15:15:23.249Z,12
2018-11-29T15:15:55.216Z,16
2018-11-29T15:16:27.180Z,16
2018-11-29T15:16:59.177Z,16
2018-11-29T15:17:31.131Z,16
2018-11-29T15:18:03.085Z,12
2018-11-29T15:18:35.048Z,12
2018-11-29T15:19:07.023Z,12
2018-11-29T15:19:39.017Z,12
2018-11-29T15:20:11.009Z,8
2018-11-29T15:20:43.003Z,12
2018-11-29T15:21:15.016Z,12
2018-11-29T15:21:47.020Z,12
2018-11-29T15:22:18.992Z,12
2018-11-29T15:22:50.985Z,8
2018-11-29T15:23:22.970Z,8
2018-11-29T15:23:54.955Z,8
2018-11-29T15:24:26.941Z,8
2018-11-29T15:24:58.913Z,4
2018-11-29T15:25:30.887Z,8
2018-11-29T15:26:02.873Z,8
2018-11-29T15:26:34.890Z,8
2018-11-29T15:27:06.863Z,8
2018-11-29T15:27:38.866Z,4
2018-11-29T15:28:10.843Z,4
2018-11-29T15:28:42.835Z,4
2018-11-29T15:29:14.809Z,4
2018-11-29T15:29:46.798Z,4
2018-11-29T15:30:18.763Z,4
2018-11-29T15:30:50.722Z,0
2018-11-29T15:31:22.707Z,4
2018-11-29T15:31:54.689Z,4
2018-11-29T15:32:26.695Z,4
2018-11-29T15:32:58.863Z,4
2018-11-29T15:33:30.855Z,4
2018-11-29T15:34:02.836Z,4
2018-11-29T15:34:34.832Z,4
2018-11-29T15:35:06.818Z,4
2018-11-29T15:35:38.786Z,0
2018-11-29T15:36:10.762Z,0
2018-11-29T15:36:43.617Z,0
2018-11-29T15:37:15.589Z,0
2018-11-29T15:37:47.567Z,0
2018-11-29T15:38:19.564Z,0
2018-11-29T15:38:51.561Z,0
2018-11-29T15:39:23.529Z,0
2018-11-29T15:39:55.513Z,0
2018-11-29T15:40:27.500Z,0
2018-11-29T15:40:59.532Z,0
2018-11-29T15:41:31.498Z,0
2018-11-29T15:42:03.455Z,0
2018-11-29T15:42:35.449Z,0
2018-11-29T15:43:07.429Z,0
2018-11-29T15:43:39.389Z,0
2018-11-29T15:44:11.360Z,0
2018-11-29T15:44:43.344Z,0
2018-11-29T15:45:15.386Z,0
2018-11-29T15:45:47.414Z,0
2018-11-29T15:46:19.379Z,0
2018-11-29T15:46:51.338Z,0
2018-11-29T15:47:23.336Z,0
2018-11-29T15:47:55.324Z,0
2018-11-29T15:48:27.299Z,0
2018-11-29T15:49:00.214Z,0
2018-11-29T15:49:32.234Z,0
2018-11-29T15:50:04.266Z,0
2018-11-29T15:50:36.288Z,0
2018-11-29T15:51:08.372Z,0
2018-11-29T15:51:40.325Z,0
2018-11-29T15:52:12.310Z,0
2018-11-29T15:52:44.281Z,0
2018-11-29T15:53:16.258Z,0
2018-11-29T15:53:48.251Z,0
2018-11-29T15:54:20.226Z,0
2018-11-29T15:54:52.208Z,0
2018-11-29T15:55:24.202Z,0
2018-11-29T15:55:56.177Z,0
2018-11-29T15:56:28.237Z,0
2018-11-29T15:57:00.203Z,0
2018-11-29T15:57:36.445Z,0
2018-11-29T15:58:08.403Z,0
2018-11-29T15:58:40.439Z,0
2018-11-29T15:59:12.427Z,0
2018-11-29T15:59:44.413Z,0
2018-11-29T16:00:16.422Z,0
2018-11-29T16:00:48.388Z,0
2018-11-29T16:01:20.368Z,0
2018-11-29T16:01:52.335Z,0
2018-11-29T16:02:24.296Z,0
2018-11-29T16:02:56.444Z,0
2018-11-29T16:03:28.430Z,0
2018-11-29T16:04:00.432Z,0
2018-11-29T16:04:32.420Z,0
2018-11-29T16:05:04.395Z,0
2018-11-29T16:05:36.357Z,0
2018-11-29T16:06:08.328Z,0
2018-11-29T16:06:40.326Z,0
2018-11-29T16:07:12.291Z,0
2018-11-29T16:07:44.283Z,0
2018-11-29T16:08:16.295Z,0
2018-11-29T16:08:48.337Z,0
2018-11-29T16:09:20.309Z,0
2018-11-29T16:09:52.269Z,0
2018-11-29T16:10:24.245Z,0
2018-11-29T16:10:56.221Z,0
2018-11-29T16:11:28.189Z,0
2018-11-29T16:12:00.167Z,0
2018-11-29T16:12:32.150Z,0
2018-11-29T16:13:05.353Z,0
2018-11-29T16:13:37.363Z,0
2018-11-29T16:14:09.315Z,0
2018-11-29T16:14:44.857Z,0
2018-11-29T16:15:16.846Z,0
2018-11-29T16:15:48.861Z,0
2018-11-29T16:16:20.837Z,0
2018-11-29T16:16:52.954Z,0
2018-11-29T16:17:24.947Z,0
2018-11-29T16:17:56.930Z,0
2018-11-29T16:18:28.929Z,0
2018-11-29T16:19:05.089Z,0
2018-11-29T16:19:37.078Z,0
2018-11-29T16:20:09.057Z,0
2018-11-29T16:20:41.016Z,0
2018-11-29T16:21:13.001Z,0
2018-11-29T16:21:44.989Z,0
2018-11-29T16:22:16.969Z,0
2018-11-29T16:22:48.941Z,0
2018-11-29T16:23:20.916Z,0
2018-11-29T16:23:52.888Z,0
2018-11-29T16:24:24.853Z,0
2018-11-29T16:24:56.817Z,0
2018-11-29T16:25:28.790Z,0
2018-11-29T16:26:00.786Z,0
2018-11-29T16:26:32.775Z,0
2018-11-29T16:27:04.826Z,0
2018-11-29T16:27:36.796Z,0
2018-11-29T16:28:08.782Z,0
2018-11-29T16:28:40.766Z,0
2018-11-29T16:29:12.765Z,0
2018-11-29T16:29:44.756Z,0
2018-11-29T16:30:16.730Z,0
2018-11-29T16:30:48.714Z,0
2018-11-29T16:31:20.682Z,0
2018-11-29T16:31:52.650Z,0
2018-11-29T16:32:24.611Z,0
2018-11-29T16:32:56.568Z,0
2018-11-29T16:33:28.535Z,0
2018-11-29T16:34:00.492Z,0
2018-11-29T16:34:32.471Z,0
2018-11-29T16:35:04.457Z,0
2018-11-29T16:35:36.439Z,0
2018-11-29T16:36:08.432Z,0
2018-11-29T16:36:40.405Z,0
2018-11-29T16:37:12.373Z,0
2018-11-29T16:37:44.355Z,0
2018-11-29T16:38:16.337Z,0
2018-11-29T16:38:48.331Z,0
2018-11-29T16:39:20.293Z,0
2018-11-29T16:39:52.261Z,0
2018-11-29T16:40:24.227Z,0
2018-11-29T16:40:56.221Z,0
2018-11-29T16:41:28.185Z,0
2018-11-29T16:42:00.284Z,0
2018-11-29T16:42:32.276Z,0
2018-11-29T16:43:04.252Z,0
2018-11-29T16:43:36.226Z,0
2018-11-29T16:44:08.207Z,0
2018-11-29T16:44:40.292Z,0
2018-11-29T16:45:12.277Z,0
2018-11-29T16:45:44.304Z,0
2018-11-29T16:46:16.271Z,0